Friday, October 31, 2014, 8:12 PM EDT

KUNV, State College, University Park Airport

Location: State College, PA, United States Lat: 40.85
Local Time: 8:12 PM EDT ( 0:12 GMT) Lon: -77.85
Time Zone: US/Eastern Elev: 1240 ft

Show me the last for .
Show Decoded

2014-10-31 19:53 METAR KUNV 312353Z 00000KT 10SM OVC055 07/02 A2988 =
2014-10-31 18:53 METAR KUNV 312253Z 00000KT 10SM OVC055 07/02 A2988 =
2014-10-31 17:53 METAR KUNV 312153Z 00000KT 10SM OVC049 07/02 A2987 =
2014-10-31 16:53 METAR KUNV 312053Z 00000KT 10SM BKN037 OVC043 08/01 A2986 =
2014-10-31 15:53 METAR KUNV 311953Z 00000KT 10SM BKN038 OVC060 08/01 A2986 =
2014-10-31 14:53 METAR KUNV 311853Z 00000KT 10SM OVC060 08/01 A2987 =
2014-10-31 13:53 METAR KUNV 311753Z VRB04KT 10SM OVC060 08/02 A2990 =
2014-10-31 12:53 METAR KUNV 311653Z VRB04KT 10SM OVC050 07/02 A2992 =
2014-10-31 11:53 METAR KUNV 311553Z VRB04KT 10SM OVC050 07/02 A2995 =
2014-10-31 10:53 METAR KUNV 311453Z VRB04KT 10SM OVC050 06/02 A2996 =
2014-10-31 09:53 METAR KUNV 311353Z VRB03KT 10SM OVC050 05/02 A2998 =
2014-10-31 08:53 METAR KUNV 311253Z VRB03KT 10SM OVC050 04/02 A2998 =
2014-10-31 07:53 METAR KUNV 311153Z 00000KT 10SM OVC048 04/02 A2998 =
2014-10-31 06:53 METAR KUNV 311053Z 00000KT 10SM OVC048 04/02 A2998 =
2014-10-31 05:53 METAR KUNV 310953Z 00000KT 10SM OVC050 04/03 A2998 =
2014-10-31 05:35 METAR KUNV 310935Z AUTO 00000KT 10SM OVC050 04/03 A2999 RMK AO2 T00410029 =
2014-10-31 05:15 METAR KUNV 310915Z AUTO 00000KT 10SM OVC050 05/03 A2999 RMK AO2 T00450029 =
2014-10-31 04:55 METAR KUNV 310855Z AUTO 00000KT 10SM OVC050 04/03 A2999 RMK AO2 T00440026 =
2014-10-31 04:35 METAR KUNV 310835Z AUTO 00000KT 10SM OVC050 04/03 A2999 RMK AO2 T00410029 =
2014-10-31 04:15 METAR KUNV 310815Z AUTO 00000KT 10SM OVC048 04/02 A3000 RMK AO2 T00430021 =
2014-10-31 03:35 METAR KUNV 310735Z AUTO 00000KT 10SM OVC050 04/02 A3000 RMK AO2 T00410016 =
2014-10-31 03:15 METAR KUNV 310715Z AUTO 00000KT 10SM OVC050 04/02 A3000 RMK AO2 T00410015 =
2014-10-31 02:55 METAR KUNV 310655Z AUTO 00000KT 10SM OVC050 04/03 A3000 RMK AO2 T00390025 =
2014-10-31 02:35 METAR KUNV 310635Z AUTO 00000KT 10SM OVC050 04/02 A3001 RMK AO2 T00410017 =
2014-10-31 02:15 METAR KUNV 310615Z AUTO 00000KT 10SM OVC050 05/02 A3001 RMK AO2 T00450019 =
2014-10-31 01:55 METAR KUNV 310555Z AUTO 00000KT 10SM OVC050 05/01 A3002 RMK AO2 T00450013 10079
                 20031 =
2014-10-31 01:35 METAR KUNV 310535Z AUTO 00000KT 10SM OVC050 04/01 A3002 RMK AO2 T00390011 =
2014-10-31 01:15 METAR KUNV 310515Z AUTO 00000KT 10SM OVC050 04/01 A3002 RMK AO2 T00370011 =
2014-10-31 00:55 METAR KUNV 310455Z AUTO 00000KT 10SM OVC050 04/01 A3002 RMK AO2 T00370010 =
2014-10-31 00:35 METAR KUNV 310435Z AUTO 00000KT 10SM OVC050 05/01 A3002 RMK AO2 T00450010 =
2014-10-31 00:15 METAR KUNV 310415Z AUTO 30003KT 10SM OVC050 05/01 A3002 RMK AO2 T00500008 =
2014-10-30 23:55 METAR KUNV 310355Z AUTO 00000KT 10SM OVC055 05/01 A3002 RMK AO2 T00480005
                 401040031 =
2014-10-30 23:35 METAR KUNV 310335Z AUTO 00000KT 10SM BKN055 05/01 A3003 RMK AO2 T00470006 =
2014-10-30 23:15 METAR KUNV 310315Z AUTO 00000KT 10SM BKN055 04/01 A3003 RMK AO2 T00380005 =
2014-10-30 22:55 METAR KUNV 310255Z AUTO 00000KT 10SM CLR 05/00 A3003 RMK AO2 T00450003 =
2014-10-30 22:35 METAR KUNV 310235Z AUTO 00000KT 10SM CLR 06/01 A3003 RMK AO2 T00600005 =
2014-10-30 22:15 METAR KUNV 310215Z AUTO 00000KT 10SM CLR 06/01 A3003 RMK AO2 T00570005 =
2014-10-30 21:55 METAR KUNV 310155Z AUTO 22003KT 10SM SCT050 05/00 A3003 RMK AO2 T00470004 =
2014-10-30 20:53 METAR KUNV 310053Z 00000KT 10SM BKN050 07/01 A3003 =

Support USWX by starting your Amazon purchase here.